Time;durP1;ratioP1;P1;durP2;ratioP2;P2;SDS_P1;SDS_P2;PMS_P1;PMS_P2;Temp;Humidity;BMP_temperature;BMP_pressure;BME280_temperature;BME280_humidity;BME280_pressure;Samples;Min_cycle;Max_cycle;Signal;HPM_P1;HPM_P2
2022/10/22 00:01:02;;;;;;;8.88;3.67;;;13.10;99.90;;;;;;5031157;28;20028;-80
2022/10/22 00:03:27;;;;;;;8.15;4.15;;;13.10;99.90;;;;;;5030784;28;20044;-80
2022/10/22 00:05:53;;;;;;;13.30;4.72;;;13.10;99.90;;;;;;5030926;28;20474;-80
2022/10/22 00:08:18;;;;;;;8.88;4.90;;;13.10;99.90;;;;;;5030827;28;20029;-80
2022/10/22 00:10:44;;;;;;;12.65;4.57;;;13.10;99.90;;;;;;5030915;28;20057;-80
2022/10/22 00:13:10;;;;;;;7.72;3.22;;;13.10;99.90;;;;;;5031093;28;20119;-80
2022/10/22 00:15:36;;;;;;;6.05;2.90;;;13.10;99.90;;;;;;5031219;28;20037;-80
2022/10/22 00:18:01;;;;;;;6.50;2.80;;;13.10;99.90;;;;;;5030227;28;20029;-80
2022/10/22 00:20:27;;;;;;;4.97;2.58;;;13.10;99.90;;;;;;5030554;28;20029;-80
2022/10/22 00:22:52;;;;;;;4.07;2.13;;;13.10;99.90;;;;;;5030797;28;20026;-80
2022/10/22 00:25:18;;;;;;;5.43;2.35;;;13.10;99.90;;;;;;5030862;28;20028;-80
2022/10/22 00:27:44;;;;;;;4.65;2.40;;;13.10;99.90;;;;;;5030494;28;20029;-80
2022/10/22 00:30:10;;;;;;;5.93;2.70;;;13.10;99.90;;;;;;5029043;28;20025;-80
2022/10/22 00:32:36;;;;;;;6.63;2.40;;;13.10;99.90;;;;;;5024643;28;20030;-80
2022/10/22 00:35:02;;;;;;;4.97;2.20;;;13.10;99.90;;;;;;5030868;28;20025;-80
2022/10/22 00:37:29;;;;;;;5.25;2.47;;;13.10;99.90;;;;;;5030959;28;20028;-79
2022/10/22 00:39:55;;;;;;;5.22;2.20;;;13.10;99.90;;;;;;5030734;28;20037;-80
2022/10/22 00:42:23;;;;;;;8.25;2.05;;;13.10;99.90;;;;;;5030847;28;20424;-80
2022/10/22 00:45:06;;;;;;;5.15;2.20;;;13.10;99.90;;;;;;5030269;28;20021;-80
2022/10/22 00:47:45;;;;;;;3.97;1.63;;;13.10;99.90;;;;;;5030428;28;20030;-80
2022/10/22 00:50:19;;;;;;;5.07;1.90;;;13.20;99.90;;;;;;5030289;28;20025;-80
2022/10/22 00:52:44;;;;;;;7.55;1.73;;;13.20;99.90;;;;;;5029983;28;20028;-80
2022/10/22 00:55:12;;;;;;;4.50;1.80;;;13.20;99.90;;;;;;5030299;28;20025;-80
2022/10/22 00:57:37;;;;;;;4.38;1.40;;;13.30;99.90;;;;;;5030198;28;20368;-80
2022/10/22 01:00:04;;;;;;;5.15;1.45;;;13.30;99.90;;;;;;5030139;28;20086;-80
2022/10/22 01:02:29;;;;;;;3.28;1.45;;;13.40;99.90;;;;;;5030338;28;20075;-80
2022/10/22 01:04:55;;;;;;;3.30;1.40;;;13.40;99.90;;;;;;5029877;28;20033;-80
2022/10/22 01:07:22;;;;;;;5.90;1.70;;;13.40;99.90;;;;;;5030087;28;20452;-80
2022/10/22 01:10:18;;;;;;;6.30;1.40;;;13.30;99.90;;;;;;5029931;28;20036;-80
2022/10/22 01:13:25;;;;;;;4.93;1.40;;;13.30;99.90;;;;;;5029912;28;20121;-80
2022/10/22 01:16:15;;;;;;;4.70;1.98;;;13.30;99.90;;;;;;5016458;28;20052;-81
2022/10/22 01:18:51;;;;;;;4.07;1.50;;;13.30;99.90;;;;;;5029770;28;20048;-81
2022/10/22 01:21:31;;;;;;;3.05;1.60;;;13.20;99.90;;;;;;5029821;28;20087;-81
2022/10/22 01:24:06;;;;;;;3.55;1.42;;;13.20;99.90;;;;;;5029699;28;20108;-81
2022/10/22 01:26:47;;;;;;;3.55;1.45;;;13.20;99.90;;;;;;5030034;28;20048;-81
2022/10/22 01:29:21;;;;;;;5.38;1.50;;;13.20;99.90;;;;;;5030898;28;20080;-80
2022/10/22 01:31:54;;;;;;;5.07;1.50;;;13.20;99.90;;;;;;5029273;28;20083;-80
2022/10/22 01:34:23;;;;;;;5.85;1.75;;;13.20;99.90;;;;;;5030620;28;20022;-80
2022/10/22 01:36:51;;;;;;;5.75;1.55;;;13.20;99.90;;;;;;5033769;28;20017;-81
2022/10/22 01:39:19;;;;;;;2.70;1.40;;;13.20;99.90;;;;;;5033447;28;20321;-81
2022/10/22 01:41:45;;;;;;;3.33;1.45;;;13.20;99.90;;;;;;5033655;28;20549;-81
2022/10/22 01:44:22;;;;;;;2.45;1.45;;;13.10;99.90;;;;;;5033582;28;20091;-81
2022/10/22 01:46:52;;;;;;;2.67;1.20;;;13.20;99.90;;;;;;5021077;28;20026;-81
2022/10/22 01:49:29;;;;;;;3.85;1.17;;;13.20;99.90;;;;;;5033547;28;20030;-81
2022/10/22 01:52:08;;;;;;;3.92;1.60;;;13.10;99.90;;;;;;5020877;28;20021;-81
2022/10/22 01:54:53;;;;;;;3.08;1.50;;;13.10;99.90;;;;;;5032896;28;20060;-81
2022/10/22 01:57:27;;;;;;;2.17;1.13;;;13.10;99.90;;;;;;5033243;28;20034;-80
2022/10/22 02:00:02;;;;;;;5.20;1.58;;;13.10;99.90;;;;;;5032696;28;20029;-80
2022/10/22 02:03:03;;;;;;;5.70;1.40;;;13.10;99.90;;;;;;5033321;28;20116;-80
2022/10/22 02:05:40;;;;;;;5.65;1.80;;;13.10;99.90;;;;;;5033446;28;20412;-80
2022/10/22 02:08:09;;;;;;;3.88;1.70;;;13.00;99.90;;;;;;5033201;28;20458;-80
2022/10/22 02:10:40;;;;;;;6.55;1.70;;;13.00;99.90;;;;;;5033057;28;20026;-80
2022/10/22 02:13:11;;;;;;;7.65;1.40;;;13.00;99.90;;;;;;5031629;28;20446;-81
2022/10/22 02:15:38;;;;;;;4.38;1.80;;;13.00;99.90;;;;;;5033209;28;20101;-81
2022/10/22 02:18:06;;;;;;;4.82;1.75;;;13.00;99.90;;;;;;5033027;28;20474;-81
2022/10/22 02:20:34;;;;;;;4.05;1.40;;;13.00;99.90;;;;;;5033212;28;20056;-80
2022/10/22 02:23:01;;;;;;;5.60;1.65;;;13.00;99.90;;;;;;5033232;28;20032;-81
2022/10/22 02:25:33;;;;;;;4.13;1.70;;;13.00;99.90;;;;;;5031942;28;20025;-80
2022/10/22 02:28:02;;;;;;;5.05;1.45;;;13.00;99.90;;;;;;5032891;28;20038;-80
2022/10/22 02:30:28;;;;;;;5.78;2.15;;;13.00;99.90;;;;;;5029619;28;20096;-81
2022/10/22 02:33:07;;;;;;;5.15;1.70;;;13.00;99.90;;;;;;5021212;28;20029;-81
2022/10/22 02:35:33;;;;;;;4.38;1.98;;;13.00;99.90;;;;;;5032779;28;20092;-80
2022/10/22 02:38:00;;;;;;;5.22;1.90;;;13.00;99.90;;;;;;5032814;28;20382;-80
2022/10/22 02:40:27;;;;;;;3.05;1.60;;;13.00;99.90;;;;;;5032152;28;20060;-80
2022/10/22 02:42:53;;;;;;;7.40;1.80;;;13.00;99.90;;;;;;5032350;28;20021;-81
2022/10/22 02:45:19;;;;;;;6.82;1.73;;;13.00;99.90;;;;;;5032563;28;20031;-81
2022/10/22 02:47:45;;;;;;;7.32;2.05;;;13.00;99.90;;;;;;5032457;28;20109;-81
2022/10/22 02:50:11;;;;;;;4.20;1.50;;;13.00;99.90;;;;;;5032578;28;20030;-81
2022/10/22 02:52:37;;;;;;;7.05;1.90;;;13.00;99.90;;;;;;5031057;28;20106;-81
2022/10/22 02:55:04;;;;;;;3.13;1.98;;;13.00;99.90;;;;;;5032333;28;20065;-81
2022/10/22 02:57:30;;;;;;;2.92;1.60;;;13.10;99.90;;;;;;5032474;28;20029;-81
2022/10/22 02:59:55;;;;;;;4.15;1.48;;;13.10;99.90;;;;;;5032282;28;20029;-81
2022/10/22 03:02:21;;;;;;;4.55;1.45;;;13.10;99.90;;;;;;5032229;28;20081;-81
2022/10/22 03:04:46;;;;;;;3.28;1.35;;;13.10;99.90;;;;;;5032266;28;20029;-81
2022/10/22 03:07:12;;;;;;;2.60;1.40;;;13.00;99.90;;;;;;5032186;28;20105;-81
2022/10/22 03:09:38;;;;;;;5.35;1.90;;;13.00;99.90;;;;;;5032207;28;20025;-81
2022/10/22 03:12:03;;;;;;;3.70;1.90;;;13.10;99.90;;;;;;5032044;28;20036;-81
2022/10/22 03:14:29;;;;;;;4.93;2.00;;;13.00;99.90;;;;;;5032178;28;20045;-81
2022/10/22 03:16:55;;;;;;;3.13;1.70;;;13.00;99.90;;;;;;5032173;28;20416;-81
2022/10/22 03:19:20;;;;;;;3.42;2.47;;;13.00;99.90;;;;;;5032158;28;20143;-81
2022/10/22 03:21:55;;;;;;;3.92;1.90;;;12.90;99.90;;;;;;5031979;28;20026;-81
2022/10/22 03:24:25;;;;;;;4.35;1.83;;;12.90;99.90;;;;;;5031837;28;20021;-81
2022/10/22 03:26:51;;;;;;;4.03;1.52;;;12.90;99.90;;;;;;5031785;28;20078;-81
2022/10/22 03:29:19;;;;;;;4.30;1.52;;;12.80;99.90;;;;;;5031880;28;20025;-81
2022/10/22 03:31:44;;;;;;;4.47;1.35;;;12.80;99.90;;;;;;5025349;28;20037;-81
2022/10/22 03:34:12;;;;;;;2.58;1.85;;;12.80;99.90;;;;;;5012853;28;20089;-81
2022/10/22 03:36:38;;;;;;;4.28;1.58;;;12.80;99.90;;;;;;5010493;28;20021;-81
2022/10/22 03:39:05;;;;;;;5.03;1.45;;;12.70;99.90;;;;;;5011602;28;20054;-81
2022/10/22 03:41:31;;;;;;;2.05;1.30;;;12.60;99.90;;;;;;5011902;28;20118;-81
2022/10/22 03:43:59;;;;;;;3.58;2.15;;;12.70;99.90;;;;;;5011836;28;20391;-81
2022/10/22 03:46:24;;;;;;;5.13;1.50;;;12.50;99.90;;;;;;5011929;28;20084;-81
2022/10/22 03:48:50;;;;;;;3.75;1.50;;;12.50;99.90;;;;;;5011781;28;20383;-80
2022/10/22 03:51:15;;;;;;;3.45;1.40;;;12.50;99.90;;;;;;5011827;28;20056;-81
2022/10/22 03:53:41;;;;;;;5.80;1.20;;;12.40;99.90;;;;;;5010713;28;20092;-81
2022/10/22 03:56:09;;;;;;;3.67;1.85;;;12.50;99.90;;;;;;5010637;28;20025;-81
2022/10/22 03:58:35;;;;;;;3.90;1.40;;;12.40;99.90;;;;;;5011910;28;20021;-81
2022/10/22 04:01:09;;;;;;;5.25;1.90;;;12.40;99.90;;;;;;5011912;28;20025;-81
2022/10/22 04:03:35;;;;;;;6.60;1.58;;;12.30;99.90;;;;;;5011669;28;20026;-81
2022/10/22 04:06:07;;;;;;;4.90;2.13;;;12.30;99.90;;;;;;5011543;28;20113;-81
2022/10/22 04:08:32;;;;;;;3.55;1.10;;;12.30;99.90;;;;;;5011429;28;20026;-81
2022/10/22 04:10:58;;;;;;;5.00;1.10;;;12.30;99.90;;;;;;5010237;28;20087;-81
2022/10/22 04:13:24;;;;;;;4.45;1.38;;;12.30;99.90;;;;;;5011522;28;20494;-81
2022/10/22 04:15:50;;;;;;;6.10;1.23;;;12.30;99.90;;;;;;5011456;28;20475;-81
2022/10/22 04:18:17;;;;;;;4.93;1.20;;;12.20;99.90;;;;;;5011279;28;20125;-81
2022/10/22 04:20:43;;;;;;;3.53;1.50;;;12.20;99.90;;;;;;5011184;28;20028;-81
2022/10/22 04:23:08;;;;;;;2.67;1.20;;;12.20;99.90;;;;;;5011291;28;20022;-81
2022/10/22 04:25:34;;;;;;;4.60;1.25;;;12.10;99.90;;;;;;5011251;28;20034;-81
2022/10/22 04:27:59;;;;;;;4.75;1.40;;;12.10;99.90;;;;;;5011264;28;20481;-81
2022/10/22 04:30:25;;;;;;;2.35;1.10;;;12.10;99.90;;;;;;5013846;28;20036;-81
2022/10/22 04:32:51;;;;;;;1.98;1.20;;;12.10;99.90;;;;;;5019179;28;20029;-81
2022/10/22 04:35:17;;;;;;;3.60;1.27;;;12.10;99.90;;;;;;5030903;28;20035;-81
2022/10/22 04:37:42;;;;;;;2.17;1.15;;;12.10;99.90;;;;;;5030916;28;20028;-82
2022/10/22 04:40:09;;;;;;;2.00;0.95;;;12.00;99.90;;;;;;5030864;28;20078;-81
2022/10/22 04:42:34;;;;;;;3.47;0.95;;;12.00;99.90;;;;;;5030720;28;20022;-81
2022/10/22 04:45:00;;;;;;;2.63;0.90;;;12.00;99.90;;;;;;5030093;28;20497;-81
2022/10/22 04:47:25;;;;;;;4.05;1.10;;;11.90;99.90;;;;;;5030271;28;20030;-81
2022/10/22 04:49:51;;;;;;;4.20;1.00;;;11.90;99.90;;;;;;5030707;28;20533;-81
2022/10/22 04:52:16;;;;;;;1.88;0.80;;;11.90;99.90;;;;;;5030794;28;20128;-81
2022/10/22 04:54:42;;;;;;;1.92;1.23;;;11.90;99.90;;;;;;5030505;28;20112;-81
2022/10/22 04:57:07;;;;;;;0.90;0.70;;;11.90;99.90;;;;;;5030140;28;20029;-81
2022/10/22 04:59:33;;;;;;;2.78;0.80;;;11.90;99.90;;;;;;5029976;28;20033;-81
2022/10/22 05:01:58;;;;;;;2.22;1.20;;;11.90;99.90;;;;;;5030265;28;20576;-81
2022/10/22 05:04:24;;;;;;;1.35;0.80;;;11.80;99.90;;;;;;5029810;28;20033;-82
2022/10/22 05:06:50;;;;;;;1.60;0.80;;;11.80;99.90;;;;;;5029933;28;20458;-81
2022/10/22 05:09:18;;;;;;;1.13;0.73;;;11.80;99.90;;;;;;5030578;28;20132;-81
2022/10/22 05:11:47;;;;;;;1.55;0.70;;;11.80;99.90;;;;;;5030383;28;20076;-81
2022/10/22 05:14:15;;;;;;;2.03;0.80;;;11.80;99.90;;;;;;5030265;28;20033;-81
2022/10/22 05:16:40;;;;;;;2.63;0.82;;;11.70;99.90;;;;;;5029408;28;20100;-88
2022/10/22 05:19:07;;;;;;;0.88;0.85;;;11.70;99.90;;;;;;5030321;28;20033;-82
2022/10/22 05:21:32;;;;;;;1.10;0.70;;;11.70;99.90;;;;;;5023307;28;20030;-82
2022/10/22 05:23:58;;;;;;;2.28;0.70;;;11.70;99.90;;;;;;5019246;28;20438;-82
2022/10/22 05:26:25;;;;;;;2.45;0.70;;;11.70;99.90;;;;;;5019624;28;20859;-82
2022/10/22 05:28:51;;;;;;;1.92;0.98;;;11.70;99.90;;;;;;5017467;28;20812;-82
2022/10/22 05:31:18;;;;;;;7.82;6.97;;;11.70;99.90;;;;;;5022993;28;20053;-82
2022/10/22 05:33:44;;;;;;;2.75;1.30;;;11.70;99.90;;;;;;5021706;28;20022;-82
2022/10/22 05:36:13;;;;;;;3.45;0.90;;;11.70;99.90;;;;;;5019301;28;20026;-83
2022/10/22 05:38:39;;;;;;;1.75;1.00;;;11.70;99.90;;;;;;5021763;28;20113;-82
2022/10/22 05:41:08;;;;;;;4.80;1.00;;;11.70;99.90;;;;;;5019008;28;20121;-83
2022/10/22 05:43:34;;;;;;;1.20;0.68;;;11.70;99.90;;;;;;5020434;28;20022;-74
2022/10/22 05:46:05;;;;;;;2.28;0.68;;;11.70;99.90;;;;;;5023044;28;20038;-83
2022/10/22 05:48:31;;;;;;;4.10;0.80;;;11.70;99.90;;;;;;5018340;28;20172;-82
2022/10/22 05:51:03;;;;;;;1.65;0.70;;;11.70;99.90;;;;;;5020376;28;20144;-75
2022/10/22 05:53:29;;;;;;;4.20;0.80;;;11.80;99.90;;;;;;5018758;28;20033;-82
2022/10/22 05:55:54;;;;;;;1.00;0.70;;;11.80;99.90;;;;;;5018538;28;20037;-82
2022/10/22 05:58:20;;;;;;;1.45;0.80;;;11.80;99.90;;;;;;5020987;28;20032;-82
2022/10/22 06:00:46;;;;;;;0.60;0.60;;;11.80;99.90;;;;;;5018121;28;20474;-82
2022/10/22 06:03:11;;;;;;;1.63;0.70;;;11.80;99.90;;;;;;5018910;28;20449;-81
2022/10/22 06:05:37;;;;;;;1.83;0.80;;;11.80;99.90;;;;;;5019317;28;20037;-82
2022/10/22 06:08:03;;;;;;;1.58;1.00;;;11.80;99.90;;;;;;5021396;28;20034;-82
2022/10/22 06:10:29;;;;;;;0.68;0.68;;;11.80;99.90;;;;;;5018369;28;20513;-82
2022/10/22 06:12:55;;;;;;;1.40;0.82;;;11.80;99.90;;;;;;5019952;28;20034;-82
2022/10/22 06:15:20;;;;;;;1.30;0.70;;;11.80;99.90;;;;;;5019648;28;20494;-82
2022/10/22 06:17:46;;;;;;;1.25;0.90;;;11.80;99.90;;;;;;5021920;28;20018;-82
2022/10/22 06:20:14;;;;;;;1.60;0.90;;;11.80;99.90;;;;;;5030042;28;20132;-82
2022/10/22 06:22:39;;;;;;;1.70;1.10;;;11.80;99.90;;;;;;5024815;28;20029;-82
2022/10/22 06:25:07;;;;;;;2.30;1.00;;;11.80;99.90;;;;;;5033423;28;20030;-82
2022/10/22 06:27:33;;;;;;;3.35;1.00;;;11.90;99.90;;;;;;5033266;28;20034;-82
2022/10/22 06:29:59;;;;;;;3.47;1.00;;;11.90;99.90;;;;;;5031801;28;20085;-82
2022/10/22 06:32:25;;;;;;;5.25;1.50;;;11.90;99.90;;;;;;5024316;28;20034;-82
2022/10/22 06:34:50;;;;;;;2.63;1.02;;;11.90;99.90;;;;;;5013651;28;20033;-82
2022/10/22 06:37:16;;;;;;;2.50;1.00;;;11.90;99.90;;;;;;5018769;28;20112;-82
2022/10/22 06:39:42;;;;;;;2.38;0.98;;;11.90;99.90;;;;;;5032173;28;20073;-82
2022/10/22 06:42:08;;;;;;;1.85;0.82;;;11.90;99.90;;;;;;5029166;28;20068;-82
2022/10/22 06:44:33;;;;;;;2.05;0.80;;;11.90;99.90;;;;;;5023064;28;20099;-82
2022/10/22 06:46:59;;;;;;;0.63;0.63;;;11.90;99.90;;;;;;5034261;28;20034;-81
2022/10/22 06:49:25;;;;;;;1.88;0.70;;;11.90;99.90;;;;;;5032816;28;20033;-81
2022/10/22 06:51:54;;;;;;;5.25;1.20;;;11.90;99.90;;;;;;5032640;28;20060;-81
2022/10/22 06:54:20;;;;;;;2.22;0.73;;;11.90;99.90;;;;;;5032736;28;20377;-81
2022/10/22 06:56:46;;;;;;;1.48;0.80;;;11.90;99.90;;;;;;5032551;28;20097;-81
2022/10/22 06:59:13;;;;;;;1.60;0.90;;;12.00;99.90;;;;;;5032490;28;20183;-82
2022/10/22 07:01:39;;;;;;;1.35;0.90;;;12.00;99.90;;;;;;5032604;28;20433;-82
2022/10/22 07:04:05;;;;;;;2.10;1.08;;;12.00;99.90;;;;;;5031552;28;20032;-83
2022/10/22 07:06:31;;;;;;;2.20;1.10;;;12.00;99.90;;;;;;5032159;28;20033;-84
2022/10/22 07:08:58;;;;;;;1.55;1.10;;;12.10;99.90;;;;;;5015534;28;20419;-83
2022/10/22 07:11:31;;;;;;;1.83;1.00;;;12.10;99.90;;;;;;5012350;28;20069;-84
2022/10/22 07:13:58;;;;;;;2.15;0.82;;;12.10;99.90;;;;;;5020178;28;20093;-83
2022/10/22 07:16:24;;;;;;;0.70;0.70;;;12.20;99.90;;;;;;5012436;28;20036;-84
2022/10/22 07:18:50;;;;;;;2.75;0.90;;;12.20;99.90;;;;;;5012397;28;20018;-83
2022/10/22 07:21:19;;;;;;;1.60;0.80;;;12.20;99.90;;;;;;5012335;28;20058;-83
2022/10/22 07:23:44;;;;;;;0.82;0.80;;;12.20;99.90;;;;;;5012180;28;20026;-83
2022/10/22 07:26:13;;;;;;;3.78;0.98;;;12.20;99.90;;;;;;5012390;28;20018;-83
2022/10/22 07:28:39;;;;;;;1.08;0.70;;;12.30;99.90;;;;;;5011937;28;20034;-84
2022/10/22 07:31:07;;;;;;;1.98;1.00;;;12.30;99.90;;;;;;5016692;28;20050;-83
2022/10/22 07:33:32;;;;;;;1.80;0.70;;;12.30;99.90;;;;;;5018068;28;20095;-83
2022/10/22 07:35:59;;;;;;;1.30;0.90;;;12.30;99.90;;;;;;5020664;28;20026;-84
2022/10/22 07:38:25;;;;;;;1.35;0.82;;;12.30;99.90;;;;;;5021113;28;20026;-84
2022/10/22 07:40:51;;;;;;;2.95;0.85;;;12.40;99.90;;;;;;5017491;28;20107;-85
2022/10/22 07:43:17;;;;;;;2.45;0.90;;;12.40;99.90;;;;;;5012329;28;20021;-84
2022/10/22 07:45:42;;;;;;;2.75;1.10;;;12.50;99.90;;;;;;5011812;28;20056;-84
2022/10/22 07:48:08;;;;;;;1.65;0.90;;;12.50;99.90;;;;;;5012225;28;20446;-84
2022/10/22 07:50:33;;;;;;;1.10;0.80;;;12.50;99.90;;;;;;5011821;28;20030;-84
2022/10/22 07:52:59;;;;;;;2.20;0.90;;;12.60;99.90;;;;;;5011951;28;20379;-84
2022/10/22 07:55:24;;;;;;;1.75;1.10;;;12.70;99.90;;;;;;5011979;28;20080;-84
2022/10/22 07:57:50;;;;;;;2.35;1.15;;;12.80;99.90;;;;;;5011572;28;20071;-84
2022/10/22 08:00:16;;;;;;;12.05;6.25;;;12.80;99.90;;;;;;5011687;28;20032;-84
2022/10/22 08:02:41;;;;;;;23.15;12.60;;;12.90;99.90;;;;;;5011662;28;20034;-84
2022/10/22 08:05:07;;;;;;;5.03;1.65;;;12.90;99.90;;;;;;5011589;28;20061;-84
2022/10/22 08:07:33;;;;;;;3.55;1.90;;;13.00;99.90;;;;;;5011461;28;20046;-84
2022/10/22 08:09:59;;;;;;;2.63;1.80;;;13.00;99.90;;;;;;5011445;28;20471;-84
2022/10/22 08:12:24;;;;;;;3.42;1.50;;;13.10;99.90;;;;;;5011383;28;20034;-84
2022/10/22 08:14:50;;;;;;;4.45;1.98;;;13.10;99.90;;;;;;5011579;28;20030;-84
2022/10/22 08:17:15;;;;;;;3.45;1.45;;;13.20;99.90;;;;;;5011189;28;20029;-84
2022/10/22 08:19:41;;;;;;;4.53;1.30;;;13.20;99.90;;;;;;5015881;28;20034;-84
2022/10/22 08:22:07;;;;;;;4.22;1.58;;;13.30;99.90;;;;;;5011239;28;20033;-84
2022/10/22 08:24:32;;;;;;;4.50;1.55;;;13.30;99.90;;;;;;5011414;28;20495;-84
2022/10/22 08:26:58;;;;;;;3.03;1.50;;;13.30;99.90;;;;;;5010764;28;20030;-84
2022/10/22 08:29:25;;;;;;;7.15;1.23;;;13.40;99.90;;;;;;5011095;28;20466;-84
2022/10/22 08:31:51;;;;;;;4.07;1.38;;;13.40;99.90;;;;;;5022193;28;20386;-84
2022/10/22 08:34:17;;;;;;;2.80;1.20;;;13.40;99.90;;;;;;5011204;28;20025;-84
2022/10/22 08:36:43;;;;;;;4.20;1.13;;;13.40;99.90;;;;;;5011191;28;20029;-84
2022/10/22 08:39:08;;;;;;;3.30;1.35;;;13.50;99.90;;;;;;5010528;28;20149;-84
2022/10/22 08:41:48;;;;;;;3.60;1.50;;;13.50;99.90;;;;;;5011068;28;20375;-84
2022/10/22 08:44:51;;;;;;;3.85;1.88;;;13.60;99.90;;;;;;5011160;28;20109;-84
2022/10/22 08:47:51;;;;;;;2.13;1.52;;;13.60;99.90;;;;;;5010953;28;20769;-84
2022/10/22 08:50:23;;;;;;;6.53;1.30;;;13.60;99.90;;;;;;5011215;28;20022;-84
2022/10/22 08:52:54;;;;;;;2.33;1.30;;;13.70;99.90;;;;;;5011505;28;20034;-84
2022/10/22 08:55:22;;;;;;;2.33;1.05;;;13.70;99.90;;;;;;5011283;28;20022;-84
2022/10/22 08:57:56;;;;;;;4.28;1.05;;;13.80;99.90;;;;;;5010837;28;20026;-83
2022/10/22 09:00:46;;;;;;;2.47;1.40;;;13.90;99.90;;;;;;5011485;28;20419;-83
2022/10/22 09:03:49;;;;;;;3.40;1.30;;;14.00;99.90;;;;;;5011132;28;20034;-82
2022/10/22 09:06:26;;;;;;;1.63;1.05;;;14.10;99.90;;;;;;5011407;28;20026;-82
2022/10/22 09:08:53;;;;;;;5.25;1.63;;;14.20;99.90;;;;;;5010482;28;20030;-81
2022/10/22 09:11:26;;;;;;;5.05;1.70;;;14.30;99.90;;;;;;5010780;28;20072;-81
2022/10/22 09:13:55;;;;;;;3.05;1.25;;;14.30;99.90;;;;;;5010433;28;20092;-82
2022/10/22 09:16:32;;;;;;;2.13;1.25;;;14.40;99.90;;;;;;5010503;28;20077;-82
2022/10/22 09:19:32;;;;;;;13.73;8.55;;;14.40;99.90;;;;;;5010310;28;20024;-82
2022/10/22 09:22:09;;;;;;;8.30;5.75;;;14.50;99.90;;;;;;5010300;28;20026;-81
2022/10/22 09:24:37;;;;;;;5.43;2.15;;;14.60;99.90;;;;;;5010436;28;20026;-81
2022/10/22 09:27:11;;;;;;;2.90;1.05;;;14.60;99.90;;;;;;5010268;28;20475;-81
2022/10/22 09:29:37;;;;;;;1.63;0.88;;;14.70;99.90;;;;;;5010331;28;20111;-81
2022/10/22 09:32:03;;;;;;;3.08;0.90;;;14.80;99.90;;;;;;5021330;28;20463;-81
2022/10/22 09:34:29;;;;;;;3.42;0.93;;;14.80;99.90;;;;;;5010499;28;20894;-81
2022/10/22 09:37:01;;;;;;;4.40;0.80;;;14.90;99.90;;;;;;5010773;28;20807;-81
2022/10/22 09:39:36;;;;;;;1.52;0.95;;;15.00;99.90;;;;;;5009947;28;20038;-81
2022/10/22 09:42:01;;;;;;;;;;;15.10;99.90;;;;;;5010725;28;20029;-81
2022/10/22 09:44:27;;;;;;;2.97;1.13;;;15.10;99.90;;;;;;5008884;28;20275;-81
2022/10/22 09:46:52;;;;;;;1.38;0.90;;;15.20;99.90;;;;;;5010020;28;20034;-81
2022/10/22 09:49:21;;;;;;;6.90;0.90;;;15.30;99.90;;;;;;5010081;28;20026;-81
2022/10/22 09:51:51;;;;;;;3.35;1.50;;;15.30;99.90;;;;;;5011786;28;20041;-81
2022/10/22 09:54:19;;;;;;;3.05;0.82;;;15.50;99.90;;;;;;5013852;28;20535;-81
2022/10/22 09:56:51;;;;;;;1.70;0.90;;;15.40;99.90;;;;;;5013787;28;20352;-81
2022/10/22 09:59:23;;;;;;;2.47;0.88;;;15.50;99.90;;;;;;5013891;28;20026;-81
2022/10/22 10:02:05;;;;;;;3.05;1.13;;;15.50;99.90;;;;;;5013765;28;20097;-81
2022/10/22 10:04:34;;;;;;;3.58;1.05;;;15.50;99.90;;;;;;5013712;28;20030;-81
2022/10/22 10:06:59;;;;;;;1.15;0.90;;;15.50;99.90;;;;;;5013694;28;20037;-81
2022/10/22 10:09:35;;;;;;;4.60;1.23;;;15.40;99.90;;;;;;5013747;28;20030;-81
2022/10/22 10:12:22;;;;;;;3.03;1.33;;;15.40;99.90;;;;;;5013563;28;20061;-81
2022/10/22 10:15:16;;;;;;;5.32;0.98;;;15.50;99.90;;;;;;5012605;28;20363;-80
2022/10/22 10:18:07;;;;;;;2.53;0.80;;;15.60;99.90;;;;;;5013678;28;20029;-81
2022/10/22 10:20:50;;;;;;;5.10;1.00;;;15.70;99.90;;;;;;5009650;28;20390;-80
2022/10/22 10:23:34;;;;;;;2.75;0.90;;;15.90;99.90;;;;;;5014137;28;20527;-83
2022/10/22 10:26:14;;;;;;;3.00;0.80;;;16.00;99.90;;;;;;5015611;28;20064;-82
2022/10/22 10:28:48;;;;;;;1.83;1.10;;;16.10;99.90;;;;;;5015558;28;20446;-89
2022/10/22 10:31:25;;;;;;;3.63;0.90;;;16.10;99.90;;;;;;5015317;28;20029;-83
2022/10/22 10:34:00;;;;;;;4.18;0.90;;;16.30;99.90;;;;;;5015588;28;20061;-84
2022/10/22 10:36:43;;;;;;;1.70;0.88;;;16.40;99.90;;;;;;5015660;28;20026;-83
2022/10/22 10:39:17;;;;;;;4.63;0.82;;;16.70;99.90;;;;;;5015258;28;20030;-83
2022/10/22 10:41:50;;;;;;;1.10;0.80;;;16.80;99.90;;;;;;5015451;28;20528;-83
2022/10/22 10:44:16;;;;;;;1.55;0.80;;;17.00;99.90;;;;;;5015140;28;20092;-83
2022/10/22 10:47:08;;;;;;;1.20;0.70;;;17.10;99.90;;;;;;5015355;28;20788;-84
2022/10/22 10:49:35;;;;;;;1.48;0.75;;;17.10;99.90;;;;;;5015083;28;20391;-83
2022/10/22 10:52:22;;;;;;;3.13;0.75;;;17.20;99.90;;;;;;5014992;28;20030;-88
2022/10/22 10:55:04;;;;;;;1.27;0.90;;;17.30;99.90;;;;;;5014911;28;20037;-83
2022/10/22 10:57:56;;;;;;;2.92;1.20;;;17.40;99.90;;;;;;5013665;28;20029;-83
2022/10/22 11:00:23;;;;;;;2.65;0.80;;;17.50;99.90;;;;;;5014917;28;20053;-83
2022/10/22 11:03:27;;;;;;;6.35;1.13;;;17.80;99.90;;;;;;5011136;28;20036;-82
2022/10/22 11:06:02;;;;;;;1.40;0.68;;;18.00;99.90;;;;;;5016782;28;20120;-87
2022/10/22 11:08:36;;;;;;;2.20;0.70;;;18.20;99.90;;;;;;5029978;28;20319;-87
2022/10/22 11:11:11;;;;;;;2.33;0.70;;;18.30;99.90;;;;;;5031528;28;20099;-87
2022/10/22 11:13:42;;;;;;;1.08;0.60;;;18.60;99.90;;;;;;5031942;28;20359;-87
2022/10/22 11:16:20;;;;;;;0.82;0.50;;;18.50;99.90;;;;;;5031781;28;20060;-87
2022/10/22 11:19:23;;;;;;;1.63;0.60;;;18.50;99.90;;;;;;5034681;28;20049;-87
2022/10/22 11:22:09;;;;;;;0.82;0.68;;;18.70;99.90;;;;;;5034582;28;20080;-86
2022/10/22 11:24:56;;;;;;;1.10;0.70;;;18.70;99.90;;;;;;5023337;28;20037;-83
2022/10/22 11:27:31;;;;;;;1.23;0.75;;;18.90;99.90;;;;;;5032519;28;20087;-83
2022/10/22 11:30:01;;;;;;;1.08;0.75;;;19.00;99.90;;;;;;5032125;28;20036;-82
2022/10/22 11:32:28;;;;;;;3.10;0.70;;;19.10;99.90;;;;;;5029949;28;20069;-79
2022/10/22 11:35:01;;;;;;;3.38;0.90;;;19.30;99.90;;;;;;5031471;28;20125;-78
2022/10/22 11:37:34;;;;;;;2.47;1.17;;;19.40;99.90;;;;;;5028837;28;20029;-81
2022/10/22 11:40:28;;;;;;;2.63;0.82;;;19.40;99.90;;;;;;5031606;28;20053;-78
2022/10/22 11:43:02;;;;;;;2.25;0.70;;;19.40;99.90;;;;;;5017991;28;20037;-79
2022/10/22 11:45:35;;;;;;;1.45;0.60;;;19.40;99.90;;;;;;5032023;28;20026;-79
2022/10/22 11:48:10;;;;;;;5.93;0.70;;;19.50;99.90;;;;;;5030511;28;20028;-81
2022/10/22 11:50:56;;;;;;;0.50;0.50;;;19.60;99.90;;;;;;5030252;28;20485;-81
2022/10/22 11:53:24;;;;;;;2.15;0.60;;;19.90;99.90;;;;;;5027370;28;20124;-81
2022/10/22 11:55:51;;;;;;;0.88;0.57;;;20.10;99.90;;;;;;5029989;28;20379;-82
2022/10/22 11:58:46;;;;;;;2.47;0.80;;;20.10;99.90;;;;;;5026548;28;20072;-82
2022/10/22 12:01:11;;;;;;;1.35;0.63;;;20.00;99.90;;;;;;5029007;28;20033;-82
2022/10/22 12:03:41;;;;;;;1.00;0.60;;;19.90;99.90;;;;;;5030367;28;20101;-82
2022/10/22 12:06:15;;;;;;;3.83;0.70;;;19.70;99.90;;;;;;5029698;28;20033;-82
2022/10/22 12:09:03;;;;;;;2.10;0.50;;;19.60;99.90;;;;;;5029968;28;20052;-80
2022/10/22 12:11:36;;;;;;;1.08;0.80;;;19.70;99.90;;;;;;5029928;28;20068;-84
2022/10/22 12:14:26;;;;;;;2.72;0.80;;;19.80;99.90;;;;;;5030022;28;20064;-75
2022/10/22 12:16:56;;;;;;;2.17;0.90;;;19.80;99.90;;;;;;5029820;28;20044;-80
2022/10/22 12:19:22;;;;;;;1.73;0.60;;;19.80;99.90;;;;;;5033683;28;20025;-81
2022/10/22 12:21:52;;;;;;;3.10;0.75;;;19.80;99.90;;;;;;5033622;28;20483;-81
2022/10/22 12:24:21;;;;;;;2.05;0.90;;;19.70;99.90;;;;;;5033473;28;20025;-81
2022/10/22 12:26:51;;;;;;;1.52;0.80;;;19.70;99.90;;;;;;5034008;28;20116;-81
2022/10/22 12:29:18;;;;;;;4.57;0.90;;;19.70;99.90;;;;;;5033670;28;20036;-76
2022/10/22 12:31:45;;;;;;;1.52;0.80;;;19.60;99.90;;;;;;5030498;28;20041;-77
2022/10/22 12:34:16;;;;;;;3.00;1.00;;;19.50;99.90;;;;;;5030926;28;20029;-74
2022/10/22 12:36:42;;;;;;;2.53;0.80;;;19.40;99.90;;;;;;5030717;28;20352;-74
2022/10/22 12:39:14;;;;;;;32.22;6.40;;;19.30;99.90;;;;;;5029928;28;20045;-74
2022/10/22 12:41:40;;;;;;;151.65;28.55;;;19.00;99.90;;;;;;5029520;28;20021;-75
2022/10/22 12:44:06;;;;;;;77.45;16.73;;;18.70;99.90;;;;;;5031382;28;20488;-74
2022/10/22 12:46:35;;;;;;;72.63;12.10;;;18.50;99.90;;;;;;5031342;28;20021;-74
2022/10/22 12:49:15;;;;;;;76.55;13.55;;;18.40;99.90;;;;;;5030731;28;20030;-74
2022/10/22 12:51:42;;;;;;;32.78;8.27;;;18.40;99.90;;;;;;5031012;28;20026;-76
2022/10/22 12:54:26;;;;;;;1.88;1.08;;;18.40;99.90;;;;;;5031682;28;20022;-77
2022/10/22 12:56:53;;;;;;;3.45;0.80;;;18.50;99.90;;;;;;5029415;28;20033;-76
2022/10/22 12:59:34;;;;;;;6.80;1.08;;;18.60;99.90;;;;;;5030243;28;20021;-75
2022/10/22 13:02:01;;;;;;;1.45;0.90;;;18.70;99.90;;;;;;5028119;28;20021;-76